LHA5WL LSZH-EDDB
Flight info
| Callsign | LHA5WL |
|---|---|
| Flight time | N/A |
| Altitude | 34000 |
| Route | DEGES Z1 ETAGO DCT HAREM/N0457F330 DCT LOHRE DCT MASEK T278 KLF KLF1R |
| Aircraft | B738/M-SDE2E3FGHIRWXY/LB1 |
Departure
| Time | N/A |
|---|---|
| Airport | Zürich Airport (LSZH) |
Arrival
| Time | 2026-04-30 17:57 |
|---|---|
| Airport | Berlin Brandenburg Airport (EDDB) |
| Time | Latitude | Longitude | Altitude | Speed | Heading |
|---|---|---|---|---|---|
| 2026-04-30 17:39 | 51.38960 | 12.24811 | 29330 ft | 397 kts | 46° |
| 2026-04-30 17:41 | 51.53697 | 12.49941 | 24323 ft | 377 kts | 47° |
| 2026-04-30 17:42 | 51.57254 | 12.56045 | 23122 ft | 371 kts | 47° |
| 2026-04-30 17:42 | 51.62483 | 12.65045 | 21341 ft | 363 kts | 47° |
| 2026-04-30 17:43 | 51.65903 | 12.70948 | 20197 ft | 358 kts | 47° |
| 2026-04-30 17:44 | 51.70940 | 12.79670 | 18531 ft | 351 kts | 47° |
| 2026-04-30 17:44 | 51.75334 | 12.87301 | 16918 ft | 347 kts | 47° |
| 2026-04-30 17:46 | 51.83176 | 13.01532 | 14069 ft | 343 kts | 25° |
| 2026-04-30 17:47 | 51.92511 | 13.04605 | 11699 ft | 334 kts | 12° |
| 2026-04-30 17:48 | 52.01075 | 13.06997 | 9904 ft | 290 kts | 13° |
| 2026-04-30 17:48 | 52.06856 | 13.08670 | 8483 ft | 273 kts | 13° |
| 2026-04-30 17:49 | 52.14053 | 13.10765 | 6752 ft | 248 kts | 13° |
| 2026-04-30 17:50 | 52.20621 | 13.12685 | 4899 ft | 235 kts | 10° |
| 2026-04-30 17:51 | 52.25369 | 13.14305 | 3501 ft | 231 kts | 25° |
| 2026-04-30 17:52 | 52.28092 | 13.19873 | 3001 ft | 190 kts | 62° |
| 2026-04-30 17:53 | 52.30476 | 13.29569 | 2405 ft | 178 kts | 67° |
| 2026-04-30 17:54 | 52.32064 | 13.36330 | 1516 ft | 153 kts | 66° |
| 2026-04-30 17:55 | 52.33523 | 13.42713 | 712 ft | 143 kts | 65° |
| 2026-04-30 17:56 | 52.34984 | 13.48696 | 153 ft | 122 kts | 69° |
| 2026-04-30 17:57 | 52.35466 | 13.50523 | 153 ft | 12 kts | 47° |
| 2026-04-30 17:58 | 52.35617 | 13.50733 | 153 ft | 0 kts | 37° |
| 2026-04-30 17:59 | 52.35910 | 13.50807 | 153 ft | 13 kts | 54° |
| 2026-04-30 18:00 | 52.36036 | 13.51068 | 153 ft | 5 kts | 341° |
| 2026-04-30 18:00 | 52.36066 | 13.51049 | 154 ft | 0 kts | 340° |